French Island, Wisconsin
Current Conditions -  °F | °C
As of 10:21 PM on Wednesday 17 Dec 2014 (Local Time) from KLSE Reporting Station
Few Clouds Few Clouds  
Wind Chill: 11°   Ceiling: Unl
Heat Index: 19°   Visibility: 10mi
Dew Point: 12°   Wind: 6mph
Humidity: 74%   Direction: 350°N
Pressure: 30.31"   Gusts: NA
Location:  43.8°N, 91.145°W
Report Text: KLSE 180421Z AUTO 35005KT 10SM FEW028 M07/M11 A3031 RMK AO2 T10721111
Loading
Personal Weather Stations






























Interactive Weather Map New forecast layout! Learn more

10-Day Weather Forecast

Advertisements
Track Severe Weather on mobile